createdAt,value
2022-08-08T00:00:49.968Z,51.23
2022-08-08T00:02:32.804Z,51.09
2022-08-08T00:05:44.006Z,51.24
2022-08-08T00:08:33.145Z,51.43
2022-08-08T00:11:20.747Z,51.27
2022-08-08T00:14:16.828Z,51.54
2022-08-08T00:17:23.412Z,51.35
2022-08-08T00:20:14.740Z,51.46
2022-08-08T00:23:06.182Z,51.48
2022-08-08T00:25:55.093Z,51.42
2022-08-08T00:28:44.709Z,51.74
2022-08-08T00:32:28.420Z,52.28
2022-08-08T00:35:21.020Z,52.46
2022-08-08T00:38:31.210Z,52.39
2022-08-08T00:42:08.924Z,52.43
2022-08-08T00:45:48.007Z,52.61
2022-08-08T00:49:22.120Z,53.27
2022-08-08T00:52:29.182Z,53.36
2022-08-08T00:55:53.288Z,53.71
2022-08-08T00:59:10.545Z,53.76
2022-08-08T01:02:02.070Z,53.43
2022-08-08T01:05:41.948Z,53.91
2022-08-08T01:09:35.417Z,54.11
2022-08-08T01:12:34.049Z,53.48
2022-08-08T01:15:54.733Z,53.80
2022-08-08T01:20:01.282Z,53.87
2022-08-08T01:23:06.582Z,55.00
2022-08-08T01:26:40.355Z,54.30
2022-08-08T01:29:58.668Z,54.67
2022-08-08T01:33:23.695Z,54.49
2022-08-08T01:36:59.742Z,54.53
2022-08-08T01:40:02.838Z,54.73
2022-08-08T01:42:54.679Z,54.68
2022-08-08T01:45:59.727Z,54.83
2022-08-08T01:48:58.107Z,54.49
2022-08-08T01:52:42.500Z,54.37
2022-08-08T01:55:19.617Z,54.58
2022-08-08T01:58:39.475Z,54.74
2022-08-08T02:02:02.884Z,54.82
2022-08-08T02:05:02.585Z,55.27
2022-08-08T02:08:02.410Z,55.67
2022-08-08T02:11:00.767Z,55.78
2022-08-08T02:13:55.403Z,55.79
2022-08-08T02:16:54.399Z,55.97
2022-08-08T02:20:07.311Z,56.04
2022-08-08T02:23:04.794Z,56.14
2022-08-08T02:26:00.761Z,56.02
2022-08-08T02:29:01.859Z,56.31
2022-08-08T02:32:05.508Z,56.38
2022-08-08T02:35:18.241Z,56.35
2022-08-08T02:38:55.906Z,56.30
2022-08-08T02:42:07.850Z,55.95
2022-08-08T02:45:29.579Z,56.30
2022-08-08T02:48:48.084Z,56.15
2022-08-08T02:51:59.800Z,56.09
2022-08-08T02:55:23.451Z,55.95
2022-08-08T02:58:47.591Z,56.06
2022-08-08T03:02:08.056Z,56.20
2022-08-08T03:05:22.766Z,56.19
2022-08-08T03:08:53.024Z,56.25
2022-08-08T03:12:13.836Z,56.20
2022-08-08T03:15:58.627Z,56.18
2022-08-08T03:18:31.025Z,56.34
2022-08-08T03:21:16.047Z,56.38
2022-08-08T03:24:02.267Z,56.61
2022-08-08T03:26:53.212Z,56.85
2022-08-08T03:29:56.155Z,57.16
2022-08-08T03:33:07.623Z,57.27
2022-08-08T03:36:15.978Z,57.13
2022-08-08T03:39:14.557Z,57.32
2022-08-08T03:42:27.145Z,57.39
2022-08-08T03:46:06.325Z,57.49
2022-08-08T03:48:20.962Z,57.45
2022-08-08T03:51:40.098Z,57.50
2022-08-08T03:54:40.859Z,57.55
2022-08-08T03:58:33.347Z,57.51
2022-08-08T04:00:32.773Z,57.75
2022-08-08T04:03:57.233Z,57.69
2022-08-08T04:06:29.610Z,57.73
2022-08-08T04:09:17.638Z,57.86
2022-08-08T04:12:03.193Z,57.83
2022-08-08T04:14:57.017Z,57.95
2022-08-08T04:17:57.897Z,58.04
2022-08-08T04:20:42.962Z,58.08
2022-08-08T04:23:26.083Z,58.48
2022-08-08T04:26:40.076Z,58.58
2022-08-08T04:29:37.352Z,58.92
2022-08-08T04:32:30.578Z,58.98
2022-08-08T04:35:20.392Z,59.14
2022-08-08T04:38:09.535Z,59.17
2022-08-08T04:40:59.137Z,59.34
2022-08-08T04:43:45.999Z,59.52
2022-08-08T04:46:36.986Z,60.05
2022-08-08T04:49:28.745Z,60.06
2022-08-08T04:52:33.808Z,60.46
2022-08-08T04:55:20.876Z,60.43
2022-08-08T04:58:11.055Z,60.63
2022-08-08T05:00:55.546Z,60.64
2022-08-08T05:04:09.568Z,60.80
2022-08-08T05:06:47.419Z,61.18
2022-08-08T05:09:36.342Z,61.09
2022-08-08T05:12:20.858Z,61.10
2022-08-08T05:15:07.308Z,61.09
2022-08-08T05:17:54.132Z,61.24
2022-08-08T05:20:49.975Z,61.38
2022-08-08T05:23:41.171Z,61.31
2022-08-08T05:26:27.450Z,61.35
2022-08-08T05:29:12.003Z,61.09
2022-08-08T05:32:04.026Z,61.04
2022-08-08T05:34:51.497Z,61.21
2022-08-08T05:37:54.690Z,61.26
2022-08-08T05:41:05.770Z,60.96
2022-08-08T05:44:04.225Z,60.76
2022-08-08T05:46:51.283Z,60.76
2022-08-08T05:49:38.144Z,60.65
2022-08-08T05:52:31.632Z,60.56
2022-08-08T05:56:11.023Z,60.33
2022-08-08T05:58:58.189Z,60.77
2022-08-08T06:01:57.848Z,60.83
2022-08-08T06:04:43.894Z,61.00
2022-08-08T06:07:46.130Z,60.85
2022-08-08T06:10:33.469Z,61.23
2022-08-08T06:13:22.599Z,61.30
2022-08-08T06:16:07.001Z,60.72
2022-08-08T06:19:07.371Z,60.19
2022-08-08T06:21:57.310Z,60.05
2022-08-08T06:25:01.066Z,59.78
2022-08-08T06:27:48.887Z,59.19
2022-08-08T06:30:36.078Z,59.28
2022-08-08T06:33:36.924Z,59.08
2022-08-08T06:36:53.396Z,59.20
2022-08-08T06:39:56.089Z,59.37
2022-08-08T06:42:41.792Z,59.33
2022-08-08T06:45:25.520Z,58.85
2022-08-08T06:48:11.018Z,58.65
2022-08-08T06:50:58.611Z,58.92
2022-08-08T06:53:50.816Z,58.80
2022-08-08T06:56:42.443Z,58.63
2022-08-08T07:00:02.562Z,58.75
2022-08-08T07:02:46.812Z,58.51
2022-08-08T07:05:40.151Z,58.51
2022-08-08T07:08:30.525Z,58.55
2022-08-08T07:11:22.295Z,58.92
2022-08-08T07:14:08.833Z,58.71
2022-08-08T07:17:09.234Z,58.58
2022-08-08T07:20:05.397Z,58.51
2022-08-08T07:22:59.311Z,58.01
2022-08-08T07:25:54.438Z,58.14
2022-08-08T07:28:38.743Z,57.76
2022-08-08T07:31:25.145Z,57.67
2022-08-08T07:34:26.597Z,57.49
2022-08-08T07:37:16.829Z,57.24
2022-08-08T07:40:02.808Z,56.97
2022-08-08T07:42:48.427Z,56.71
2022-08-08T07:45:34.697Z,56.78
2022-08-08T07:48:34.827Z,56.61
2022-08-08T07:51:23.972Z,56.50
2022-08-08T07:54:32.233Z,55.83
2022-08-08T07:57:29.084Z,55.67
2022-08-08T08:00:25.180Z,55.91
2022-08-08T08:03:41.518Z,55.75
2022-08-08T08:06:30.775Z,55.68
2022-08-08T08:09:24.878Z,55.77
2022-08-08T08:12:31.299Z,55.80
2022-08-08T08:15:21.509Z,55.60
2022-08-08T08:18:14.253Z,55.15
2022-08-08T08:21:02.969Z,54.73
2022-08-08T08:24:02.830Z,54.65
2022-08-08T08:26:54.711Z,54.59
2022-08-08T08:29:39.912Z,54.70
2022-08-08T08:32:35.643Z,54.34
2022-08-08T08:35:29.728Z,53.95
2022-08-08T08:38:28.783Z,53.67
2022-08-08T08:41:20.188Z,53.53
2022-08-08T08:44:13.842Z,52.99
2022-08-08T08:46:58.917Z,52.85
2022-08-08T08:49:44.699Z,52.62
2022-08-08T08:52:28.807Z,52.62
2022-08-08T08:55:16.210Z,52.23
2022-08-08T08:58:05.190Z,51.85
2022-08-08T09:01:09.015Z,51.40
2022-08-08T09:04:00.681Z,51.02
2022-08-08T09:06:51.598Z,50.83
2022-08-08T09:09:39.868Z,50.15
2022-08-08T09:12:36.931Z,48.93
2022-08-08T09:15:37.200Z,48.46
2022-08-08T09:18:21.498Z,48.75
2022-08-08T09:21:56.005Z,48.49
2022-08-08T09:24:15.305Z,49.39
2022-08-08T09:27:09.239Z,47.82
2022-08-08T09:30:08.595Z,48.31
2022-08-08T09:33:12.425Z,47.45
2022-08-08T09:36:02.749Z,46.53
2022-08-08T09:38:54.559Z,46.05
2022-08-08T09:41:54.802Z,46.14
2022-08-08T09:45:03.866Z,46.21
2022-08-08T09:48:04.506Z,46.14
2022-08-08T09:50:56.086Z,46.28
2022-08-08T09:53:59.705Z,45.86
2022-08-08T09:56:55.266Z,44.70
2022-08-08T10:00:02.217Z,45.48
2022-08-08T10:02:56.801Z,45.25
2022-08-08T10:05:40.339Z,44.71
2022-08-08T10:08:23.437Z,44.59
2022-08-08T10:11:12.116Z,44.05
2022-08-08T10:14:34.799Z,43.27
2022-08-08T10:17:56.329Z,42.71
2022-08-08T10:20:25.973Z,43.35
2022-08-08T10:23:41.939Z,42.14
2022-08-08T10:26:52.358Z,41.99
2022-08-08T10:29:58.949Z,40.86
2022-08-08T10:32:48.785Z,40.98
2022-08-08T10:36:09.244Z,40.20
2022-08-08T10:38:40.627Z,39.31
2022-08-08T10:41:35.883Z,37.84
2022-08-08T10:44:36.807Z,37.70
2022-08-08T10:47:22.795Z,37.83
2022-08-08T10:50:08.745Z,37.07
2022-08-08T10:52:52.123Z,36.07
2022-08-08T10:55:41.138Z,35.05
2022-08-08T10:58:29.769Z,35.02
2022-08-08T11:01:13.466Z,35.07
2022-08-08T11:04:04.670Z,35.23
2022-08-08T11:06:49.399Z,35.70
2022-08-08T11:09:32.588Z,34.86
2022-08-08T11:12:17.416Z,36.27
2022-08-08T11:15:01.461Z,36.15
2022-08-08T11:17:58.476Z,36.38
2022-08-08T11:20:52.362Z,36.18
2022-08-08T11:23:37.464Z,36.33
2022-08-08T11:26:22.613Z,36.30
2022-08-08T11:29:11.611Z,36.54
2022-08-08T11:31:59.514Z,35.89
2022-08-08T11:35:08.946Z,35.80
2022-08-08T11:38:35.701Z,34.94
2022-08-08T11:40:53.743Z,33.88
2022-08-08T11:43:41.781Z,34.00
2022-08-08T11:46:28.132Z,33.31
2022-08-08T11:49:17.239Z,32.81
2022-08-08T11:52:00.787Z,31.95
2022-08-08T11:54:48.226Z,31.79
2022-08-08T11:57:35.124Z,32.14
2022-08-08T12:00:19.937Z,31.54
2022-08-08T12:03:16.922Z,31.08
2022-08-08T12:06:13.762Z,29.73
2022-08-08T12:09:07.293Z,29.19
2022-08-08T12:11:52.492Z,30.22
2022-08-08T12:14:35.548Z,30.08
2022-08-08T12:17:20.139Z,29.95
2022-08-08T12:20:05.187Z,29.37
2022-08-08T12:22:51.134Z,31.62
2022-08-08T12:25:38.323Z,31.16
2022-08-08T12:28:29.421Z,30.90
2022-08-08T12:31:13.373Z,30.96
2022-08-08T12:34:02.109Z,30.41
2022-08-08T12:36:49.113Z,30.54
2022-08-08T12:40:01.513Z,31.25
2022-08-08T12:42:46.518Z,32.20
2022-08-08T12:45:57.829Z,32.13
2022-08-08T12:48:39.276Z,32.74
2022-08-08T12:51:23.509Z,32.85
2022-08-08T12:54:25.448Z,32.26
2022-08-08T12:57:17.290Z,31.70
2022-08-08T13:00:04.991Z,31.23
2022-08-08T13:03:01.048Z,30.59
2022-08-08T13:06:03.641Z,30.27
2022-08-08T13:08:53.561Z,31.15
2022-08-08T13:12:28.218Z,30.23
2022-08-08T13:14:53.351Z,30.59
2022-08-08T13:18:09.932Z,30.18
2022-08-08T13:20:48.392Z,30.85
2022-08-08T13:23:36.174Z,30.96
2022-08-08T13:26:20.571Z,31.37
2022-08-08T13:29:12.876Z,31.98
2022-08-08T13:32:03.121Z,32.50
2022-08-08T13:34:52.660Z,32.50
2022-08-08T13:38:05.862Z,31.85
2022-08-08T13:40:44.867Z,31.16
2022-08-08T13:43:28.670Z,30.53
2022-08-08T13:46:26.846Z,30.93
2022-08-08T13:50:37.621Z,31.07
2022-08-08T13:52:23.177Z,31.16
2022-08-08T13:55:29.352Z,31.26
2022-08-08T13:58:20.493Z,31.36
2022-08-08T14:01:15.005Z,31.03
2022-08-08T14:04:00.232Z,31.59
2022-08-08T14:06:46.452Z,31.80
2022-08-08T14:10:05.850Z,31.90
2022-08-08T14:12:43.746Z,31.69
2022-08-08T14:15:39.622Z,31.72
2022-08-08T14:18:35.657Z,32.61
2022-08-08T14:21:48.766Z,32.86
2022-08-08T14:24:35.622Z,32.66
2022-08-08T14:27:20.458Z,33.29
2022-08-08T14:30:17.790Z,33.84
2022-08-08T14:33:01.558Z,34.12
2022-08-08T14:35:44.689Z,34.82
2022-08-08T14:38:52.643Z,34.81
2022-08-08T14:41:53.186Z,35.43
2022-08-08T14:44:39.474Z,35.59
2022-08-08T14:47:24.805Z,35.75
2022-08-08T14:50:21.422Z,35.51
2022-08-08T14:53:15.427Z,35.81
2022-08-08T14:56:02.164Z,36.00
2022-08-08T14:58:47.597Z,36.49
2022-08-08T15:01:37.323Z,36.78
2022-08-08T15:04:26.319Z,37.36
2022-08-08T15:07:22.704Z,36.32
2022-08-08T15:10:09.453Z,35.65
2022-08-08T15:12:53.858Z,34.36
2022-08-08T15:16:02.854Z,34.26
2022-08-08T15:18:40.167Z,34.45
2022-08-08T15:21:31.206Z,34.75
2022-08-08T15:24:16.991Z,34.67
2022-08-08T15:27:12.020Z,34.36
2022-08-08T15:30:06.244Z,34.97
2022-08-08T15:32:55.534Z,35.08
2022-08-08T15:35:40.239Z,35.07
2022-08-08T15:38:24.445Z,35.40
2022-08-08T15:41:08.561Z,36.27
2022-08-08T15:44:01.009Z,36.56
2022-08-08T15:46:45.335Z,36.88
2022-08-08T15:49:34.673Z,36.85
2022-08-08T15:52:25.002Z,36.90
2022-08-08T15:55:11.228Z,37.06
2022-08-08T15:57:55.824Z,37.44
2022-08-08T16:00:40.139Z,37.62
2022-08-08T16:03:30.651Z,37.46
2022-08-08T16:06:15.402Z,37.24
2022-08-08T16:13:03.375Z,37.43
2022-08-08T16:13:03.375Z,37.38
2022-08-08T16:15:19.770Z,37.45
2022-08-08T16:18:11.617Z,37.67
2022-08-08T16:21:00.576Z,37.66
2022-08-08T16:23:43.953Z,37.90
2022-08-08T16:26:34.765Z,38.05
2022-08-08T16:29:23.802Z,38.28
2022-08-08T16:32:32.221Z,38.03
2022-08-08T16:35:15.670Z,38.34
2022-08-08T16:38:01.965Z,38.07
2022-08-08T16:40:46.603Z,38.26
2022-08-08T16:43:42.056Z,38.01
2022-08-08T16:46:42.844Z,37.87
2022-08-08T16:49:38.276Z,38.03
2022-08-08T16:55:01.830Z,38.44
2022-08-08T16:55:53.884Z,38.03
2022-08-08T16:58:32.511Z,38.85
2022-08-08T17:01:17.638Z,38.65
2022-08-08T17:04:04.270Z,38.92
2022-08-08T17:06:47.341Z,38.91
2022-08-08T17:09:44.827Z,38.53
2022-08-08T17:12:28.872Z,38.16
2022-08-08T17:15:17.453Z,38.93
2022-08-08T17:18:04.621Z,39.01
2022-08-08T17:20:56.630Z,38.68
2022-08-08T17:24:00.041Z,39.40
2022-08-08T17:26:42.931Z,39.38
2022-08-08T17:29:27.702Z,39.89
2022-08-08T17:32:12.029Z,39.70
2022-08-08T17:35:54.603Z,40.04
2022-08-08T17:38:00.253Z,40.16
2022-08-08T17:40:48.920Z,39.65
2022-08-08T17:43:32.167Z,40.22
2022-08-08T17:46:36.566Z,40.39
2022-08-08T17:49:24.109Z,40.03
2022-08-08T17:52:11.722Z,40.35
2022-08-08T17:54:56.743Z,39.98
2022-08-08T17:57:39.874Z,40.61
2022-08-08T18:00:30.215Z,40.47
2022-08-08T18:03:14.188Z,40.22
2022-08-08T18:05:57.265Z,40.50
2022-08-08T18:08:41.993Z,40.35
2022-08-08T18:11:29.498Z,40.31
2022-08-08T18:14:21.763Z,40.73
2022-08-08T18:17:06.683Z,40.30
2022-08-08T18:20:36.895Z,40.90
2022-08-08T18:23:12.495Z,41.02
2022-08-08T18:26:01.466Z,41.21
2022-08-08T18:28:54.840Z,41.19
2022-08-08T18:31:39.310Z,41.45
2022-08-08T18:34:26.766Z,41.84
2022-08-08T18:37:17.830Z,42.21
2022-08-08T18:40:14.068Z,41.92
2022-08-08T18:42:57.179Z,41.87
2022-08-08T18:46:53.377Z,42.01
2022-08-08T18:48:44.698Z,42.38
2022-08-08T18:51:52.484Z,42.20
2022-08-08T18:54:33.250Z,41.93
2022-08-08T18:57:17.054Z,42.16
2022-08-08T19:00:01.484Z,42.25
2022-08-08T19:02:48.061Z,42.18
2022-08-08T19:05:37.312Z,42.42
2022-08-08T19:08:29.435Z,42.84
2022-08-08T19:11:12.701Z,43.10
2022-08-08T19:14:00.814Z,42.94
2022-08-08T19:16:43.990Z,43.17
2022-08-08T19:19:30.057Z,43.34
2022-08-08T19:22:14.483Z,43.57
2022-08-08T19:26:02.421Z,43.67
2022-08-08T19:28:17.929Z,43.60
2022-08-08T19:31:08.941Z,43.70
2022-08-08T19:34:30.156Z,43.30
2022-08-08T19:36:58.925Z,43.29
2022-08-08T19:39:42.970Z,43.83
2022-08-08T19:42:28.698Z,43.60
2022-08-08T19:45:14.068Z,43.26
2022-08-08T19:47:57.459Z,43.40
2022-08-08T19:50:40.491Z,43.37
2022-08-08T19:53:50.948Z,43.95
2022-08-08T19:56:40.417Z,44.18
2022-08-08T19:59:24.045Z,44.35
2022-08-08T20:02:10.557Z,44.16
2022-08-08T20:04:53.741Z,45.18
2022-08-08T20:08:30.135Z,44.65
2022-08-08T20:10:42.509Z,45.28
2022-08-08T20:14:31.420Z,45.05
2022-08-08T20:16:29.585Z,45.30
2022-08-08T20:19:13.831Z,45.07
2022-08-08T20:22:01.090Z,44.83
2022-08-08T20:24:46.192Z,44.79
2022-08-08T20:27:43.733Z,44.85
2022-08-08T20:30:53.179Z,44.99
2022-08-08T20:34:03.922Z,45.25
2022-08-08T20:36:39.866Z,45.55
2022-08-08T20:39:39.399Z,45.33
2022-08-08T20:42:28.353Z,45.42
2022-08-08T20:45:14.318Z,45.42
2022-08-08T20:48:21.480Z,45.21
2022-08-08T20:51:09.369Z,45.20
2022-08-08T20:53:59.755Z,45.74
2022-08-08T20:57:05.767Z,45.50
2022-08-08T20:59:51.786Z,45.54
2022-08-08T21:02:37.226Z,45.41
2022-08-08T21:05:21.471Z,45.47
2022-08-08T21:08:37.305Z,45.57
2022-08-08T21:11:09.736Z,45.81
2022-08-08T21:13:54.014Z,45.54
2022-08-08T21:16:41.635Z,45.42
2022-08-08T21:19:26.084Z,45.51
2022-08-08T21:22:17.278Z,45.57
2022-08-08T21:25:00.390Z,45.82
2022-08-08T21:28:09.681Z,45.96
2022-08-08T21:30:52.128Z,46.00
2022-08-08T21:33:35.934Z,46.36
2022-08-08T21:36:28.424Z,46.27
2022-08-08T21:39:16.568Z,46.41
2022-08-08T21:41:59.759Z,46.19
2022-08-08T21:44:58.723Z,46.11
2022-08-08T21:48:05.916Z,46.16
2022-08-08T21:50:48.158Z,46.42
2022-08-08T21:54:34.782Z,47.04
2022-08-08T21:56:42.134Z,47.41
2022-08-08T21:59:26.690Z,47.73
2022-08-08T22:02:27.223Z,48.07
2022-08-08T22:05:10.756Z,48.26
2022-08-08T22:08:00.235Z,48.39
2022-08-08T22:10:45.272Z,48.72
2022-08-08T22:13:47.835Z,48.52
2022-08-08T22:16:34.650Z,48.53
2022-08-08T22:19:17.782Z,48.69
2022-08-08T22:22:06.926Z,48.64
2022-08-08T22:24:56.287Z,48.38
2022-08-08T22:28:02.807Z,48.46
2022-08-08T22:30:50.936Z,48.16
2022-08-08T22:34:13.258Z,48.44
2022-08-08T22:36:39.663Z,48.47
2022-08-08T22:39:39.478Z,48.46
2022-08-08T22:42:31.990Z,48.49
2022-08-08T22:45:19.171Z,48.55
2022-08-08T22:48:02.434Z,48.52
2022-08-08T22:50:45.690Z,48.42
2022-08-08T22:54:33.781Z,48.54
2022-08-08T22:56:34.762Z,48.47
2022-08-08T22:59:18.816Z,48.25
2022-08-08T23:02:12.809Z,48.46
2022-08-08T23:05:05.054Z,48.30
2022-08-08T23:07:58.016Z,48.26
2022-08-08T23:10:41.241Z,48.39
2022-08-08T23:13:25.565Z,48.38
2022-08-08T23:16:41.720Z,48.22
2022-08-08T23:19:32.369Z,48.06
2022-08-08T23:22:16.727Z,48.20
2022-08-08T23:24:59.771Z,48.00
2022-08-08T23:27:46.609Z,48.15
2022-08-08T23:30:29.811Z,48.16
2022-08-08T23:33:19.168Z,48.30
2022-08-08T23:36:20.703Z,48.49
2022-08-08T23:39:09.534Z,48.64
2022-08-08T23:41:53.546Z,48.60
2022-08-08T23:44:38.441Z,48.65
2022-08-08T23:49:08.765Z,48.56
2022-08-08T23:50:30.039Z,48.63
2022-08-08T23:53:30.800Z,48.57
2022-08-08T23:56:31.945Z,48.79
2022-08-08T23:59:16.905Z,48.61
